createdAt,value
2022-10-29T00:02:06.584Z,7.10
2022-10-29T00:04:33.151Z,7.18
2022-10-29T00:06:59.638Z,7.38
2022-10-29T00:09:26.227Z,6.72
2022-10-29T00:11:52.718Z,7.43
2022-10-29T00:14:19.249Z,7.30
2022-10-29T00:16:45.763Z,7.82
2022-10-29T00:19:12.269Z,7.70
2022-10-29T00:21:40.451Z,7.05
2022-10-29T00:24:09.947Z,7.13
2022-10-29T00:26:36.642Z,6.63
2022-10-29T00:29:03.423Z,6.75
2022-10-29T00:31:30.993Z,7.13
2022-10-29T00:33:57.744Z,7.10
2022-10-29T00:36:26.955Z,6.55
2022-10-29T00:38:53.995Z,7.28
2022-10-29T00:41:23.757Z,6.70
2022-10-29T00:43:52.491Z,6.10
2022-10-29T00:46:31.411Z,6.50
2022-10-29T00:48:58.878Z,6.72
2022-10-29T00:51:26.659Z,6.68
2022-10-29T00:53:58.490Z,6.50
2022-10-29T00:56:27.160Z,6.25
2022-10-29T00:58:53.896Z,5.78
2022-10-29T01:01:20.681Z,6.55
2022-10-29T01:03:47.519Z,7.07
2022-10-29T01:06:14.729Z,6.82
2022-10-29T01:08:41.265Z,6.20
2022-10-29T01:11:33.940Z,6.43
2022-10-29T01:14:15.567Z,6.18
2022-10-29T01:17:10.774Z,5.80
2022-10-29T01:20:21.641Z,5.63
2022-10-29T01:22:54.277Z,5.38
2022-10-29T01:25:42.112Z,5.67
2022-10-29T01:28:59.773Z,5.22
2022-10-29T01:31:47.369Z,5.30
2022-10-29T01:34:20.057Z,5.63
2022-10-29T01:36:56.005Z,5.77
2022-10-29T01:39:40.624Z,5.88
2022-10-29T01:42:34.589Z,5.15
2022-10-29T01:45:11.905Z,5.28
2022-10-29T01:47:42.989Z,5.38
2022-10-29T01:50:13.142Z,5.50
2022-10-29T01:52:40.821Z,5.32
2022-10-29T01:55:08.245Z,5.60
2022-10-29T01:57:37.411Z,5.57
2022-10-29T02:00:06.790Z,5.65
2022-10-29T02:02:48.641Z,5.40
2022-10-29T02:05:37.120Z,5.53
2022-10-29T02:08:20.878Z,5.40
2022-10-29T02:11:01.509Z,5.03
2022-10-29T02:13:34.551Z,4.93
2022-10-29T02:16:04.828Z,5.47
2022-10-29T02:18:31.340Z,4.90
2022-10-29T02:20:57.832Z,5.13
2022-10-29T02:23:24.346Z,4.75
2022-10-29T02:25:50.914Z,5.40
2022-10-29T02:28:17.637Z,5.18
2022-10-29T02:30:44.216Z,5.00
2022-10-29T02:33:10.750Z,5.38
2022-10-29T02:35:37.266Z,5.50
2022-10-29T02:38:03.828Z,4.68
2022-10-29T02:40:30.343Z,5.13
2022-10-29T02:42:57.209Z,5.45
2022-10-29T02:45:24.044Z,5.30
2022-10-29T02:47:50.554Z,4.95
2022-10-29T02:50:17.168Z,5.03
2022-10-29T02:52:43.704Z,5.50
2022-10-29T02:55:10.309Z,5.00
2022-10-29T02:57:36.799Z,5.07
2022-10-29T03:00:04.854Z,5.63
2022-10-29T03:02:31.513Z,5.05
2022-10-29T03:04:58.203Z,5.80
2022-10-29T03:07:24.679Z,5.55
2022-10-29T03:09:51.313Z,5.78
2022-10-29T03:12:17.815Z,5.55
2022-10-29T03:14:44.466Z,5.22
2022-10-29T03:17:11.105Z,5.38
2022-10-29T03:19:37.648Z,5.07
2022-10-29T03:22:04.145Z,5.88
2022-10-29T03:24:30.792Z,5.25
2022-10-29T03:26:57.327Z,5.72
2022-10-29T03:29:23.963Z,5.18
2022-10-29T03:31:50.522Z,5.28
2022-10-29T03:34:17.093Z,4.93
2022-10-29T03:36:43.609Z,4.93
2022-10-29T03:39:10.179Z,5.57
2022-10-29T03:41:36.729Z,5.00
2022-10-29T03:44:03.357Z,5.22
2022-10-29T03:46:29.946Z,4.95
2022-10-29T03:48:56.594Z,5.30
2022-10-29T03:51:23.148Z,5.07
2022-10-29T03:53:49.783Z,4.72
2022-10-29T03:56:16.322Z,4.97
2022-10-29T03:58:43.095Z,4.90
2022-10-29T04:01:10.920Z,5.10
2022-10-29T04:03:39.065Z,4.45
2022-10-29T04:06:14.644Z,4.95
2022-10-29T04:08:42.179Z,4.55
2022-10-29T04:11:13.310Z,4.75
2022-10-29T04:13:40.388Z,4.70
2022-10-29T04:16:07.277Z,4.50
2022-10-29T04:18:34.118Z,4.80
2022-10-29T04:27:07.990Z,4.78
2022-10-29T04:29:25.031Z,4.85
2022-10-29T04:31:51.547Z,5.38
2022-10-29T04:34:18.243Z,4.60
2022-10-29T04:36:45.494Z,4.90
2022-10-29T04:39:12.056Z,4.43
2022-10-29T04:41:38.793Z,4.57
2022-10-29T04:44:05.490Z,5.53
2022-10-29T04:46:32.174Z,5.10
2022-10-29T04:48:58.828Z,5.00
2022-10-29T04:51:26.800Z,4.60
2022-10-29T04:53:53.362Z,4.65
2022-10-29T04:56:20.075Z,4.80
2022-10-29T04:58:46.630Z,4.78
2022-10-29T05:01:13.375Z,5.20
2022-10-29T05:03:40.091Z,4.95
2022-10-29T05:06:07.091Z,8.00
2022-10-29T05:08:34.038Z,6.45
2022-10-29T05:11:05.230Z,4.88
2022-10-29T05:13:32.925Z,5.20
2022-10-29T05:15:59.606Z,5.43
2022-10-29T05:18:26.472Z,5.40
2022-10-29T05:20:57.201Z,5.55
2022-10-29T05:23:24.279Z,5.13
2022-10-29T05:25:52.375Z,5.25
2022-10-29T05:28:21.728Z,5.20
2022-10-29T05:30:50.129Z,5.00
2022-10-29T05:33:25.775Z,4.88
2022-10-29T05:35:52.504Z,4.97
2022-10-29T05:38:19.800Z,4.60
2022-10-29T05:40:46.668Z,5.10
2022-10-29T05:43:15.072Z,4.70
2022-10-29T05:45:42.454Z,5.15
2022-10-29T05:50:42.451Z,5.00
2022-10-29T05:53:12.026Z,5.30
2022-10-29T05:55:48.598Z,4.82
2022-10-29T05:58:15.215Z,4.90
2022-10-29T06:00:45.212Z,4.85
2022-10-29T06:03:14.748Z,4.88
2022-10-29T06:05:41.480Z,5.15
2022-10-29T06:08:08.092Z,4.95
2022-10-29T06:10:34.779Z,5.20
2022-10-29T06:13:01.442Z,5.35
2022-10-29T06:15:28.213Z,5.10
2022-10-29T06:17:55.071Z,4.85
2022-10-29T06:20:21.985Z,5.03
2022-10-29T06:22:57.121Z,4.85
2022-10-29T06:25:25.138Z,5.43
2022-10-29T06:28:05.458Z,5.53
2022-10-29T06:30:33.942Z,5.47
2022-10-29T06:33:01.309Z,5.18
2022-10-29T06:35:28.095Z,6.00
2022-10-29T06:37:55.330Z,5.63
2022-10-29T06:40:22.656Z,5.40
2022-10-29T06:42:49.290Z,5.80
2022-10-29T06:45:15.963Z,5.38
2022-10-29T06:47:44.666Z,5.32
2022-10-29T06:50:13.366Z,5.07
2022-10-29T06:52:40.159Z,5.20
2022-10-29T06:55:07.667Z,5.28
2022-10-29T06:57:34.371Z,4.85
2022-10-29T07:00:05.552Z,4.65
2022-10-29T07:02:35.106Z,5.30
2022-10-29T07:05:01.730Z,5.55
2022-10-29T07:07:29.002Z,5.45
2022-10-29T07:09:55.719Z,5.30
2022-10-29T07:12:22.224Z,5.80
2022-10-29T07:14:48.754Z,6.80
2022-10-29T07:17:15.343Z,5.97
2022-10-29T07:19:41.892Z,5.70
2022-10-29T07:22:08.786Z,5.75
2022-10-29T07:24:35.315Z,5.72
2022-10-29T07:27:02.092Z,6.07
2022-10-29T07:29:28.643Z,5.60
2022-10-29T07:41:44.496Z,7.60
2022-10-29T07:44:11.143Z,7.32
2022-10-29T07:46:37.650Z,6.25
2022-10-29T07:49:04.270Z,7.13
2022-10-29T07:51:30.755Z,6.93
2022-10-29T07:53:57.258Z,6.40
2022-10-29T07:56:23.765Z,6.22
2022-10-29T07:58:50.282Z,6.35
2022-10-29T08:01:16.828Z,6.10
2022-10-29T08:03:43.369Z,5.65
2022-10-29T08:06:09.947Z,5.47
2022-10-29T08:08:36.498Z,5.60
2022-10-29T08:11:04.538Z,5.50
2022-10-29T08:13:31.411Z,6.10
2022-10-29T08:15:58.023Z,6.35
2022-10-29T08:18:24.699Z,5.97
2022-10-29T08:20:51.357Z,5.90
2022-10-29T08:23:17.936Z,5.25
2022-10-29T08:25:44.569Z,5.53
2022-10-29T08:28:14.429Z,5.38
2022-10-29T08:30:42.089Z,5.32
2022-10-29T08:33:09.543Z,4.90
2022-10-29T08:35:36.062Z,4.85
2022-10-29T08:38:02.665Z,5.05
2022-10-29T08:40:45.494Z,4.22
2022-10-29T08:43:25.766Z,4.63
2022-10-29T08:45:54.971Z,4.90
2022-10-29T08:48:33.485Z,4.97
2022-10-29T08:51:09.141Z,4.80
2022-10-29T08:53:45.541Z,5.03
2022-10-29T08:56:28.492Z,4.55
2022-10-29T08:59:11.897Z,4.88
2022-10-29T09:01:38.919Z,4.40
2022-10-29T09:04:24.402Z,4.63
2022-10-29T09:07:14.726Z,4.07
2022-10-29T09:09:44.307Z,3.92
2022-10-29T09:12:16.877Z,4.47
2022-10-29T09:14:58.117Z,4.87
2022-10-29T09:17:49.446Z,4.70
2022-10-29T09:20:26.045Z,4.50
2022-10-29T09:23:03.407Z,4.20
2022-10-29T09:25:33.353Z,4.32
2022-10-29T09:28:32.902Z,4.00
2022-10-29T09:31:08.621Z,4.05
2022-10-29T09:33:35.138Z,3.95
2022-10-29T09:36:02.329Z,3.92
2022-10-29T09:38:35.416Z,4.13
2022-10-29T09:41:03.911Z,3.90
2022-10-29T09:43:45.479Z,3.88
2022-10-29T09:46:17.917Z,4.07
2022-10-29T09:49:23.722Z,4.00
2022-10-29T09:52:14.951Z,3.85
2022-10-29T09:54:41.662Z,3.70
2022-10-29T09:57:26.509Z,3.53
2022-10-29T09:59:59.178Z,3.60
2022-10-29T10:02:49.272Z,3.92
2022-10-29T10:05:23.018Z,4.10
2022-10-29T10:08:10.482Z,3.70
2022-10-29T10:10:51.157Z,3.75
2022-10-29T10:13:20.680Z,3.80
2022-10-29T10:16:22.539Z,3.63
2022-10-29T10:18:49.136Z,3.70
2022-10-29T10:21:30.892Z,3.40
2022-10-29T10:23:59.179Z,3.63
2022-10-29T10:26:43.141Z,3.78
2022-10-29T10:29:19.480Z,3.40
2022-10-29T10:31:55.200Z,4.07
2022-10-29T10:34:37.458Z,3.40
2022-10-29T10:37:09.853Z,3.50
2022-10-29T10:39:39.110Z,3.67
2022-10-29T10:42:15.903Z,3.35
2022-10-29T10:44:53.119Z,3.85
2022-10-29T10:47:24.425Z,3.50
2022-10-29T10:49:50.979Z,3.92
2022-10-29T10:52:21.059Z,3.70
2022-10-29T10:54:58.248Z,4.00
2022-10-29T10:57:28.244Z,3.67
2022-10-29T11:00:16.888Z,3.90
2022-10-29T11:02:56.407Z,3.47
2022-10-29T11:05:30.239Z,3.45
2022-10-29T11:08:10.498Z,3.60
2022-10-29T11:10:42.906Z,4.32
2022-10-29T11:13:18.459Z,3.37
2022-10-29T11:15:55.670Z,3.33
2022-10-29T11:18:30.662Z,3.42
2022-10-29T11:21:18.719Z,3.70
2022-10-29T11:23:56.367Z,3.58
2022-10-29T11:26:35.343Z,3.45
2022-10-29T11:29:21.959Z,3.17
2022-10-29T11:32:14.107Z,3.20
2022-10-29T11:35:08.953Z,3.47
2022-10-29T11:37:56.851Z,3.92
2022-10-29T11:40:46.644Z,3.33
2022-10-29T11:43:15.112Z,3.83
2022-10-29T11:46:15.067Z,3.25
2022-10-29T11:48:56.428Z,2.97
2022-10-29T11:51:41.276Z,3.30
2022-10-29T11:54:13.683Z,3.78
2022-10-29T11:56:54.756Z,3.22
2022-10-29T11:59:58.935Z,3.60
2022-10-29T12:03:02.600Z,3.17
2022-10-29T12:05:35.236Z,3.08
2022-10-29T12:08:17.233Z,3.50
2022-10-29T12:10:56.059Z,3.25
2022-10-29T12:13:29.907Z,3.00
2022-10-29T12:16:30.821Z,3.30
2022-10-29T12:19:16.199Z,2.90
2022-10-29T12:21:45.898Z,2.85
2022-10-29T12:24:41.462Z,3.25
2022-10-29T12:27:43.030Z,3.60
2022-10-29T12:30:12.216Z,3.55
2022-10-29T12:33:00.463Z,3.25
2022-10-29T12:35:42.336Z,2.60
2022-10-29T12:38:44.893Z,3.15
2022-10-29T12:41:19.207Z,2.80
2022-10-29T12:43:47.963Z,3.38
2022-10-29T12:46:30.285Z,3.42
2022-10-29T12:49:25.092Z,3.25
2022-10-29T12:54:53.367Z,3.42
2022-10-29T12:57:30.524Z,3.28
2022-10-29T12:59:58.531Z,3.38
2022-10-29T13:02:37.359Z,3.17
2022-10-29T13:05:07.153Z,4.00
2022-10-29T13:07:34.654Z,3.47
2022-10-29T13:10:22.973Z,3.72
2022-10-29T13:12:55.493Z,3.13
2022-10-29T13:15:24.436Z,3.45
2022-10-29T13:17:52.436Z,3.05
2022-10-29T13:20:27.781Z,3.38
2022-10-29T13:22:56.716Z,3.00
2022-10-29T13:25:36.178Z,3.60
2022-10-29T13:28:08.671Z,3.28
2022-10-29T13:30:37.305Z,3.70
2022-10-29T13:33:21.804Z,3.15
2022-10-29T13:36:27.530Z,3.22
2022-10-29T13:39:07.413Z,3.33
2022-10-29T13:41:43.357Z,3.50
2022-10-29T13:44:13.359Z,3.50
2022-10-29T13:47:05.121Z,3.50
2022-10-29T13:49:53.365Z,3.30
2022-10-29T13:52:21.820Z,3.17
2022-10-29T13:54:58.577Z,3.70
2022-10-29T13:57:29.528Z,3.55
2022-10-29T14:00:06.796Z,3.47
2022-10-29T14:02:36.827Z,3.33
2022-10-29T14:05:18.381Z,3.70
2022-10-29T14:07:55.860Z,3.88
2022-10-29T14:10:41.116Z,2.97
2022-10-29T14:13:13.539Z,3.30
2022-10-29T14:16:07.630Z,3.55
2022-10-29T14:18:37.735Z,3.85
2022-10-29T14:21:07.699Z,3.47
2022-10-29T14:23:34.315Z,3.42
2022-10-29T14:26:03.715Z,3.45
2022-10-29T14:28:32.367Z,3.10
2022-10-29T14:31:07.480Z,3.72
2022-10-29T14:33:36.905Z,3.80
2022-10-29T14:36:20.362Z,4.20
2022-10-29T14:38:54.020Z,4.32
2022-10-29T14:41:21.536Z,4.32
2022-10-29T14:44:10.751Z,4.10
2022-10-29T14:46:38.640Z,4.65
2022-10-29T14:49:22.186Z,4.20
2022-10-29T14:54:39.510Z,4.07
2022-10-29T14:57:15.825Z,4.30
2022-10-29T14:59:52.908Z,4.30
2022-10-29T15:05:25.364Z,4.15
2022-10-29T15:08:03.060Z,4.30
2022-10-29T15:10:29.747Z,4.97
2022-10-29T15:12:57.365Z,5.28
2022-10-29T15:15:27.468Z,4.43
2022-10-29T15:18:07.416Z,4.93
2022-10-29T15:20:39.636Z,4.90
2022-10-29T15:23:12.596Z,4.82
2022-10-29T15:25:39.539Z,4.38
2022-10-29T15:28:12.161Z,5.00
2022-10-29T15:30:39.025Z,5.15
2022-10-29T15:33:08.248Z,5.05
2022-10-29T15:35:38.749Z,4.63
2022-10-29T15:38:05.462Z,4.45
2022-10-29T15:40:32.119Z,5.15
2022-10-29T15:43:29.559Z,4.82
2022-10-29T15:45:57.384Z,4.82
2022-10-29T15:48:36.168Z,4.80
2022-10-29T15:51:04.099Z,4.82
2022-10-29T15:53:30.702Z,5.28
2022-10-29T15:55:58.183Z,4.93
2022-10-29T15:58:24.752Z,4.68
2022-10-29T16:00:51.691Z,4.63
2022-10-29T16:03:21.915Z,4.88
2022-10-29T16:05:51.727Z,4.70
2022-10-29T16:08:27.046Z,5.00
2022-10-29T16:10:54.394Z,4.38
2022-10-29T16:13:22.546Z,4.60
2022-10-29T16:15:49.099Z,4.85
2022-10-29T16:18:15.705Z,5.95
2022-10-29T16:20:42.351Z,5.57
2022-10-29T16:23:12.258Z,5.90
2022-10-29T16:25:39.620Z,5.10
2022-10-29T16:28:06.943Z,5.00
2022-10-29T16:30:34.316Z,5.45
2022-10-29T16:33:01.911Z,4.93
2022-10-29T16:35:29.975Z,4.97
2022-10-29T16:37:57.481Z,5.07
2022-10-29T16:40:26.386Z,5.30
2022-10-29T16:42:54.976Z,6.35
2022-10-29T16:45:25.512Z,6.50
2022-10-29T16:47:52.613Z,6.45
2022-10-29T16:50:26.802Z,7.43
2022-10-29T16:53:06.709Z,8.20
2022-10-29T16:55:36.066Z,9.15
2022-10-29T16:58:02.654Z,9.65
2022-10-29T17:00:33.069Z,10.80
2022-10-29T17:03:04.761Z,11.00
2022-10-29T17:05:36.516Z,11.60
2022-10-29T17:08:03.334Z,13.20
2022-10-29T17:10:32.473Z,14.30
2022-10-29T17:13:00.158Z,14.43
2022-10-29T17:15:27.169Z,14.65
2022-10-29T17:17:53.793Z,15.93
2022-10-29T17:20:20.484Z,15.80
2022-10-29T17:22:47.021Z,15.73
2022-10-29T17:25:13.597Z,16.75
2022-10-29T17:27:41.216Z,16.60
2022-10-29T17:30:09.335Z,16.73
2022-10-29T17:32:36.207Z,15.98
2022-10-29T17:35:02.857Z,16.92
2022-10-29T17:37:29.523Z,14.82
2022-10-29T17:39:56.187Z,15.43
2022-10-29T17:42:22.847Z,16.75
2022-10-29T17:44:49.446Z,15.82
2022-10-29T17:47:16.004Z,14.98
2022-10-29T17:49:42.520Z,14.10
2022-10-29T17:52:09.057Z,14.45
2022-10-29T17:54:35.675Z,13.80
2022-10-29T17:57:02.366Z,15.15
2022-10-29T17:59:28.868Z,14.15
2022-10-29T18:01:55.543Z,15.15
2022-10-29T18:04:22.213Z,13.48
2022-10-29T18:06:48.858Z,13.50
2022-10-29T18:09:18.562Z,14.48
2022-10-29T18:11:50.237Z,15.27
2022-10-29T18:14:17.085Z,16.08
2022-10-29T18:16:43.653Z,16.35
2022-10-29T18:19:10.179Z,17.23
2022-10-29T18:21:36.713Z,19.38
2022-10-29T18:24:03.331Z,20.02
2022-10-29T18:26:36.758Z,20.73
2022-10-29T18:29:08.209Z,22.85
2022-10-29T18:31:35.186Z,23.42
2022-10-29T18:34:05.993Z,22.17
2022-10-29T18:36:35.461Z,21.65
2022-10-29T18:39:03.979Z,23.13
2022-10-29T18:41:31.112Z,21.55
2022-10-29T18:43:58.680Z,20.90
2022-10-29T18:46:25.774Z,20.05
2022-10-29T18:48:52.645Z,19.00
2022-10-29T18:51:27.704Z,19.23
2022-10-29T18:53:55.696Z,18.85
2022-10-29T18:56:22.750Z,18.35
2022-10-29T18:58:49.863Z,16.58
2022-10-29T19:01:23.051Z,16.92
2022-10-29T19:03:54.619Z,16.08
2022-10-29T19:06:22.519Z,16.67
2022-10-29T19:08:49.568Z,14.55
2022-10-29T19:11:22.270Z,10.77
2022-10-29T19:13:53.706Z,12.13
2022-10-29T19:16:21.199Z,13.55
2022-10-29T19:18:48.195Z,12.77
2022-10-29T19:21:17.700Z,13.15
2022-10-29T19:23:46.224Z,10.80
2022-10-29T19:26:17.811Z,9.10
2022-10-29T19:28:45.839Z,8.57
2022-10-29T19:31:23.580Z,8.15
2022-10-29T19:33:51.674Z,8.77
2022-10-29T19:36:18.875Z,8.95
2022-10-29T19:38:46.127Z,8.50
2022-10-29T19:41:14.365Z,8.35
2022-10-29T19:43:41.300Z,8.65
2022-10-29T19:46:10.216Z,8.93
2022-10-29T19:48:36.728Z,8.65
2022-10-29T19:51:03.421Z,8.90
2022-10-29T19:53:30.773Z,9.38
2022-10-29T19:55:57.449Z,9.40
2022-10-29T19:58:26.506Z,10.80
2022-10-29T20:00:54.252Z,11.07
2022-10-29T20:03:21.557Z,9.32
2022-10-29T20:05:49.040Z,9.70
2022-10-29T20:08:16.443Z,9.57
2022-10-29T20:10:43.599Z,9.23
2022-10-29T20:13:10.245Z,9.68
2022-10-29T20:15:39.897Z,10.13
2022-10-29T20:18:06.411Z,11.35
2022-10-29T20:20:32.934Z,10.32
2022-10-29T20:23:00.112Z,12.52
2022-10-29T20:25:27.580Z,13.57
2022-10-29T20:27:54.187Z,13.18
2022-10-29T20:30:20.930Z,14.27
2022-10-29T20:32:48.341Z,14.52
2022-10-29T20:35:15.315Z,16.20
2022-10-29T20:37:41.804Z,14.45
2022-10-29T20:40:08.980Z,12.52
2022-10-29T20:42:35.487Z,12.82
2022-10-29T20:45:02.008Z,11.95
2022-10-29T20:47:28.566Z,10.90
2022-10-29T20:49:55.034Z,12.18
2022-10-29T20:52:21.622Z,10.98
2022-10-29T20:54:48.243Z,11.40
2022-10-29T20:57:14.809Z,12.30
2022-10-29T20:59:42.149Z,11.20
2022-10-29T21:02:12.295Z,10.38
2022-10-29T21:04:39.136Z,11.68
2022-10-29T21:07:07.611Z,10.23
2022-10-29T21:09:34.214Z,10.80
2022-10-29T21:12:00.727Z,10.32
2022-10-29T21:14:28.206Z,11.38
2022-10-29T21:16:54.708Z,11.00
2022-10-29T21:19:22.776Z,11.63
2022-10-29T21:21:49.274Z,17.55
2022-10-29T21:24:16.596Z,13.95
2022-10-29T21:26:43.179Z,17.33
2022-10-29T21:29:09.761Z,12.55
2022-10-29T21:31:36.303Z,12.27
2022-10-29T21:34:02.925Z,14.50
2022-10-29T21:36:29.436Z,17.75
2022-10-29T21:38:56.098Z,13.32
2022-10-29T21:41:22.597Z,12.45
2022-10-29T21:43:49.095Z,12.23
2022-10-29T21:46:15.647Z,12.43
2022-10-29T21:48:42.178Z,13.30
2022-10-29T21:51:13.733Z,19.05
2022-10-29T21:53:40.416Z,15.45
2022-10-29T21:56:09.918Z,13.70
2022-10-29T21:58:36.432Z,13.32
2022-10-29T22:01:06.164Z,12.13
2022-10-29T22:03:34.388Z,13.15
2022-10-29T22:06:05.914Z,12.95
2022-10-29T22:08:33.657Z,12.75
2022-10-29T22:11:00.537Z,10.75
2022-10-29T22:13:31.475Z,12.65
2022-10-29T22:15:58.215Z,11.65
2022-10-29T22:18:25.782Z,11.57
2022-10-29T22:21:15.391Z,11.68
2022-10-29T22:23:55.863Z,11.35
2022-10-29T22:26:24.821Z,11.95
2022-10-29T22:28:51.414Z,11.98
2022-10-29T22:31:19.863Z,10.32
2022-10-29T22:33:47.155Z,9.82
2022-10-29T22:36:24.922Z,10.77
2022-10-29T22:38:59.579Z,11.18
2022-10-29T22:41:27.175Z,11.32
2022-10-29T22:43:53.874Z,12.57
2022-10-29T22:46:21.538Z,11.18
2022-10-29T22:48:48.497Z,9.98
2022-10-29T22:51:17.679Z,10.80
2022-10-29T22:53:45.357Z,10.70
2022-10-29T22:56:17.840Z,10.30
2022-10-29T22:58:44.587Z,11.38
2022-10-29T23:01:14.593Z,10.80
2022-10-29T23:03:41.967Z,10.73
2022-10-29T23:06:10.839Z,11.85
2022-10-29T23:08:37.762Z,10.60
2022-10-29T23:11:22.203Z,11.00
2022-10-29T23:13:51.677Z,11.13
2022-10-29T23:16:18.652Z,11.05
2022-10-29T23:18:50.219Z,11.40
2022-10-29T23:21:17.421Z,10.57
2022-10-29T23:23:44.145Z,12.18
2022-10-29T23:26:11.599Z,11.85
2022-10-29T23:28:39.733Z,10.77
2022-10-29T23:31:12.899Z,10.10
2022-10-29T23:33:47.777Z,10.35
2022-10-29T23:36:15.881Z,10.10
2022-10-29T23:38:42.532Z,9.73
2022-10-29T23:41:09.121Z,11.07
2022-10-29T23:43:35.870Z,10.50
2022-10-29T23:46:02.888Z,11.63
2022-10-29T23:48:29.665Z,11.70
2022-10-29T23:50:56.623Z,11.02
2022-10-29T23:53:24.338Z,10.27
2022-10-29T23:55:51.049Z,9.93
2022-10-29T23:58:18.244Z,10.35
